Kinsman, Illinois
Current Conditions -  °F | °C
As of 11:55 PM on Sunday 19 Oct 2014 (Local Time) from KC09 Reporting Station
Clear Clear  
Wind Chill: 51°   Ceiling: Unl
Heat Index: 51°   Visibility: 10mi
Dew Point: 46°   Wind: 8mph
Humidity: 82%   Direction: 210°SSW
Pressure: 29.93"   Gusts: NA
Location:  41.19°N, 88.57°W
Report Text: KC09 200455Z AUTO 21007KT 10SM CLR 11/08 A2993 RMK AO2 T01080078
Loading
Personal Weather Stations






























Interactive Weather Map
Tropical Storm Tracking
New forecast layout! Learn more

10-Day Weather Forecast

Advertisements
Track Severe Weather on mobile